Time;durP1;ratioP1;P1;durP2;ratioP2;P2;SDS_P1;SDS_P2;PMS_P1;PMS_P2;Temp;Humidity;BMP_temperature;BMP_pressure;BME280_temperature;BME280_humidity;BME280_pressure;Samples;Min_cycle;Max_cycle;Signal;HPM_P1;HPM_P2
2023/07/05 00:01:42;;;;;;;5.15;2.88;;;21.10;58.60;;;;;;4957327;28;20404;-75
2023/07/05 00:04:09;;;;;;;4.45;2.83;;;21.10;58.70;;;;;;4941115;29;20035;-75
2023/07/05 00:06:35;;;;;;;4.35;2.85;;;21.10;58.80;;;;;;4956639;29;20039;-76
2023/07/05 00:09:01;;;;;;;4.45;3.05;;;21.10;58.90;;;;;;4939649;29;20043;-75
2023/07/05 00:11:27;;;;;;;5.60;3.40;;;21.10;58.90;;;;;;4955294;29;20461;-75
2023/07/05 00:13:53;;;;;;;3.92;2.58;;;21.00;58.80;;;;;;4939417;29;20027;-77
2023/07/05 00:16:20;;;;;;;5.18;3.10;;;21.00;58.90;;;;;;4939176;29;20449;-77
2023/07/05 00:18:46;;;;;;;4.65;3.08;;;21.00;59.00;;;;;;4955347;29;20456;-76
2023/07/05 00:21:12;;;;;;;5.05;3.10;;;21.00;59.10;;;;;;4938647;29;20037;-76
2023/07/05 00:23:38;;;;;;;4.63;3.10;;;21.00;59.10;;;;;;4954971;29;20078;-76
2023/07/05 00:26:07;;;;;;;4.45;3.08;;;20.90;59.10;;;;;;4955754;28;20121;-76
2023/07/05 00:28:33;;;;;;;5.72;3.17;;;20.90;59.20;;;;;;4954722;29;20042;-76
2023/07/05 00:31:03;;;;;;;4.75;3.22;;;20.90;59.20;;;;;;4955174;29;20097;-76
2023/07/05 00:33:31;;;;;;;4.82;3.13;;;20.90;59.30;;;;;;4938928;28;20039;-76
2023/07/05 00:35:57;;;;;;;4.82;2.83;;;20.90;59.30;;;;;;4955192;29;20122;-76
2023/07/05 00:38:24;;;;;;;5.28;3.58;;;20.90;59.40;;;;;;4938899;29;20032;-76
2023/07/05 00:40:51;;;;;;;5.00;3.00;;;20.80;59.30;;;;;;4938906;29;20039;-79
2023/07/05 00:43:18;;;;;;;5.40;3.65;;;20.80;59.40;;;;;;4954501;28;20055;-76
2023/07/05 00:45:46;;;;;;;5.25;3.08;;;20.80;59.40;;;;;;4938699;29;20031;-77
2023/07/05 00:48:19;;;;;;;4.55;3.05;;;20.80;59.50;;;;;;4955599;28;20039;-76
2023/07/05 00:50:49;;;;;;;4.55;3.08;;;20.80;59.50;;;;;;4954576;29;20118;-75
2023/07/05 00:53:15;;;;;;;5.50;3.60;;;20.80;59.50;;;;;;4954542;29;20023;-76
2023/07/05 00:55:52;;;;;;;4.47;3.10;;;20.80;59.50;;;;;;4955306;28;20110;-75
2023/07/05 00:58:21;;;;;;;4.88;2.92;;;20.80;59.60;;;;;;4954999;29;20054;-75
2023/07/05 01:00:48;;;;;;;4.57;3.10;;;20.70;59.50;;;;;;4939041;28;20376;-75
2023/07/05 01:03:20;;;;;;;4.63;3.00;;;20.70;59.60;;;;;;4955498;28;20038;-76
2023/07/05 01:05:51;;;;;;;4.82;3.03;;;20.70;59.60;;;;;;4954225;29;20035;-76
2023/07/05 01:08:17;;;;;;;4.90;3.03;;;20.70;59.70;;;;;;4939122;28;20043;-77
2023/07/05 01:10:51;;;;;;;4.88;3.00;;;20.70;59.70;;;;;;4954421;29;20050;-77
2023/07/05 01:13:36;;;;;;;4.35;2.90;;;20.60;59.80;;;;;;4955413;29;20039;-77
2023/07/05 01:16:22;;;;;;;;;;;20.60;59.80;;;;;;4954333;29;20031;-75
2023/07/05 01:19:06;;;;;;;3.92;2.20;;;20.60;59.50;;;;;;4955535;28;19999;-75
2023/07/05 01:21:35;;;;;;;3.83;2.50;;;20.60;59.60;;;;;;4955756;28;20055;-75
2023/07/05 01:24:30;;;;;;;2.97;2.15;;;20.50;59.70;;;;;;4953913;29;20031;-76
2023/07/05 01:27:23;;;;;;;4.27;2.53;;;20.50;59.90;;;;;;4955405;28;20063;-75
2023/07/05 01:30:26;;;;;;;3.13;2.20;;;20.50;59.90;;;;;;4953720;29;20495;-75
2023/07/05 01:32:59;;;;;;;3.85;2.38;;;20.50;60.10;;;;;;4955293;28;20053;-75
2023/07/05 01:35:31;;;;;;;3.35;2.25;;;20.40;60.00;;;;;;4953984;28;20445;-75
2023/07/05 01:37:57;;;;;;;4.25;2.30;;;20.50;60.10;;;;;;4953828;28;20027;-75
2023/07/05 01:40:26;;;;;;;4.30;2.47;;;20.40;60.10;;;;;;4954724;28;20038;-75
2023/07/05 01:42:59;;;;;;;4.57;2.58;;;20.40;60.20;;;;;;4953850;29;20563;-76
2023/07/05 01:45:39;;;;;;;3.73;2.40;;;20.40;60.20;;;;;;4954103;29;20046;-75
2023/07/05 01:48:32;;;;;;;3.70;2.25;;;20.40;60.30;;;;;;4953930;29;20114;-76
2023/07/05 01:51:16;;;;;;;3.78;2.28;;;20.40;60.30;;;;;;4946276;28;20040;-76
2023/07/05 01:53:58;;;;;;;2.67;2.03;;;20.40;60.40;;;;;;4954085;29;20031;-77
2023/07/05 01:56:32;;;;;;;3.40;2.33;;;20.40;60.40;;;;;;4954736;28;20106;-76
2023/07/05 01:59:01;;;;;;;2.70;1.92;;;20.40;60.40;;;;;;4953948;28;20054;-76
2023/07/05 02:01:29;;;;;;;4.25;2.10;;;20.40;60.40;;;;;;4955481;28;20067;-76
2023/07/05 02:03:56;;;;;;;2.55;1.85;;;20.40;60.50;;;;;;4953458;29;20035;-75
2023/07/05 02:06:22;;;;;;;3.38;2.13;;;20.30;60.40;;;;;;4953457;29;20035;-77
2023/07/05 02:08:51;;;;;;;4.28;2.35;;;20.30;60.50;;;;;;4937553;29;20082;-76
2023/07/05 02:11:18;;;;;;;3.13;2.10;;;20.30;60.60;;;;;;4953373;29;20036;-77
2023/07/05 02:13:44;;;;;;;3.05;2.20;;;20.30;60.60;;;;;;4954636;29;20136;-76
2023/07/05 02:16:09;;;;;;;3.58;2.20;;;20.30;60.60;;;;;;4953279;29;20084;-76
2023/07/05 02:18:35;;;;;;;4.03;2.25;;;20.30;60.70;;;;;;4937822;28;20500;-77
2023/07/05 02:21:01;;;;;;;3.17;2.33;;;20.30;60.70;;;;;;4938307;29;20039;-76
2023/07/05 02:23:27;;;;;;;3.17;1.80;;;20.30;60.70;;;;;;4953108;29;20038;-76
2023/07/05 02:25:53;;;;;;;4.15;1.85;;;20.30;60.60;;;;;;4954869;28;20395;-76
2023/07/05 02:28:19;;;;;;;3.28;2.10;;;20.30;60.70;;;;;;4958216;28;20035;-76
2023/07/05 02:30:45;;;;;;;2.72;2.03;;;20.30;60.70;;;;;;4958528;28;20023;-76
2023/07/05 02:33:11;;;;;;;2.85;1.98;;;20.30;61.40;;;;;;4958663;28;20487;-76
2023/07/05 02:35:39;;;;;;;3.15;1.90;;;20.30;60.70;;;;;;4957077;29;20122;-76
2023/07/05 02:38:05;;;;;;;2.65;1.92;;;20.30;60.70;;;;;;4956984;28;20028;-76
2023/07/05 02:40:32;;;;;;;2.85;1.90;;;20.20;60.70;;;;;;4940982;29;20027;-76
2023/07/05 02:42:59;;;;;;;3.15;1.92;;;20.20;60.70;;;;;;4957999;28;20043;-76
2023/07/05 02:45:28;;;;;;;1.90;1.55;;;20.20;60.70;;;;;;4957706;29;20443;-77
2023/07/05 02:47:54;;;;;;;2.80;1.85;;;20.20;60.80;;;;;;4957137;29;20091;-77
2023/07/05 02:50:20;;;;;;;2.97;1.90;;;20.20;60.70;;;;;;4957621;29;20372;-77
2023/07/05 02:52:47;;;;;;;3.20;1.92;;;20.20;60.70;;;;;;4958480;28;20055;-77
2023/07/05 02:55:14;;;;;;;2.83;2.00;;;20.20;60.70;;;;;;4941738;29;20031;-76
2023/07/05 02:57:40;;;;;;;2.22;1.77;;;20.20;60.70;;;;;;4957214;28;20041;-77
2023/07/05 03:00:07;;;;;;;3.28;1.90;;;20.20;60.70;;;;;;4956664;29;20467;-77
2023/07/05 03:02:33;;;;;;;2.20;1.70;;;20.10;61.40;;;;;;4940581;29;20119;-77
2023/07/05 03:05:06;;;;;;;2.72;1.90;;;20.20;60.80;;;;;;4941331;28;20106;-76
2023/07/05 03:07:32;;;;;;;2.28;1.70;;;20.20;60.80;;;;;;4958166;28;20120;-75
2023/07/05 03:09:58;;;;;;;2.65;1.58;;;20.10;60.60;;;;;;4956261;29;20023;-76
2023/07/05 03:12:24;;;;;;;2.08;1.63;;;20.10;60.70;;;;;;4941125;29;20039;-76
2023/07/05 03:14:52;;;;;;;1.83;1.63;;;20.10;60.70;;;;;;4956453;29;20043;-77
2023/07/05 03:17:18;;;;;;;1.88;1.50;;;20.10;60.80;;;;;;4940438;29;20110;-77
2023/07/05 03:19:46;;;;;;;2.28;1.60;;;20.10;60.90;;;;;;4940937;29;20044;-77
2023/07/05 03:22:14;;;;;;;2.40;1.73;;;20.10;61.60;;;;;;4956003;29;20499;-77
2023/07/05 03:24:39;;;;;;;3.33;1.70;;;20.10;60.90;;;;;;4957518;28;20043;-77
2023/07/05 03:27:05;;;;;;;2.00;1.40;;;20.00;60.90;;;;;;4956155;29;20051;-77
2023/07/05 03:29:31;;;;;;;2.25;1.60;;;20.00;60.90;;;;;;4939718;29;20476;-77
2023/07/05 03:31:58;;;;;;;2.10;1.60;;;20.00;60.90;;;;;;4940101;29;20027;-77
2023/07/05 03:34:25;;;;;;;2.00;1.50;;;20.00;60.90;;;;;;4939967;29;20062;-75
2023/07/05 03:36:51;;;;;;;2.53;1.33;;;20.00;60.90;;;;;;4955877;28;20066;-75
2023/07/05 03:39:16;;;;;;;2.00;1.50;;;20.00;60.90;;;;;;4955442;29;20051;-76
2023/07/05 03:41:42;;;;;;;2.03;1.40;;;19.90;60.80;;;;;;4956861;28;20042;-76
2023/07/05 03:44:08;;;;;;;1.75;1.40;;;19.90;60.70;;;;;;4939684;29;20058;-76
2023/07/05 03:46:34;;;;;;;2.38;1.52;;;19.90;60.80;;;;;;4955485;29;20047;-76
2023/07/05 03:48:59;;;;;;;1.98;1.65;;;19.90;60.70;;;;;;4939790;29;20050;-76
2023/07/05 03:51:25;;;;;;;2.35;1.42;;;19.90;60.70;;;;;;4955910;29;20027;-75
2023/07/05 03:53:54;;;;;;;2.40;1.67;;;19.90;60.70;;;;;;4957183;29;20066;-75
2023/07/05 03:56:20;;;;;;;1.52;1.33;;;19.90;60.70;;;;;;4956819;28;20567;-76
2023/07/05 03:58:47;;;;;;;2.20;1.60;;;19.80;60.80;;;;;;4955416;29;20038;-75
2023/07/05 04:01:17;;;;;;;2.53;1.65;;;19.80;61.10;;;;;;4956499;28;20046;-76
2023/07/05 04:03:48;;;;;;;2.22;1.60;;;19.80;60.70;;;;;;4956930;28;20118;-77
2023/07/05 04:06:15;;;;;;;2.03;1.50;;;19.80;60.80;;;;;;4955349;29;20046;-76
2023/07/05 04:08:41;;;;;;;2.10;1.48;;;19.80;60.80;;;;;;4955322;29;20050;-77
2023/07/05 04:11:08;;;;;;;2.40;1.42;;;19.80;60.70;;;;;;4955761;29;20472;-76
2023/07/05 04:13:34;;;;;;;2.70;1.65;;;19.70;60.70;;;;;;4955868;28;20059;-77
2023/07/05 04:16:08;;;;;;;2.20;1.60;;;19.70;60.70;;;;;;4955878;29;20531;-76
2023/07/05 04:18:35;;;;;;;2.15;1.60;;;19.70;60.70;;;;;;4939961;29;20046;-77
2023/07/05 04:21:00;;;;;;;2.17;1.50;;;19.70;60.70;;;;;;4939975;28;20223;-76
2023/07/05 04:23:26;;;;;;;2.35;1.58;;;19.60;60.60;;;;;;4956019;29;20533;-76
2023/07/05 04:26:05;;;;;;;2.17;1.58;;;19.60;60.60;;;;;;4956793;28;20106;-77
2023/07/05 04:28:32;;;;;;;2.92;1.80;;;19.60;60.70;;;;;;4955839;29;20039;-77
2023/07/05 04:30:58;;;;;;;2.42;1.60;;;19.60;60.70;;;;;;4957643;28;20050;-76
2023/07/05 04:33:25;;;;;;;2.33;1.77;;;19.50;60.60;;;;;;4957008;29;20035;-77
2023/07/05 04:35:54;;;;;;;2.15;1.50;;;19.50;60.60;;;;;;4957821;28;20070;-76
2023/07/05 04:38:20;;;;;;;2.50;1.50;;;19.50;60.70;;;;;;4955877;29;20035;-77
2023/07/05 04:40:46;;;;;;;2.42;1.60;;;19.50;60.70;;;;;;4955858;28;20032;-77
2023/07/05 04:43:12;;;;;;;2.70;1.90;;;19.50;60.70;;;;;;4954533;29;20087;-77
2023/07/05 04:45:38;;;;;;;2.10;1.60;;;19.40;60.70;;;;;;4955758;28;20035;-76
2023/07/05 04:48:04;;;;;;;1.70;1.48;;;19.50;60.70;;;;;;4955266;29;20040;-77
2023/07/05 04:50:30;;;;;;;2.03;1.70;;;19.40;60.60;;;;;;4938656;28;20503;-75
2023/07/05 04:52:56;;;;;;;2.67;1.80;;;19.40;60.60;;;;;;4956317;28;20031;-75
2023/07/05 04:55:22;;;;;;;2.83;1.75;;;19.40;60.70;;;;;;4955505;28;20031;-76
2023/07/05 04:57:48;;;;;;;2.25;1.70;;;19.30;60.60;;;;;;4956107;28;20042;-75
2023/07/05 05:00:16;;;;;;;1.88;1.60;;;19.40;60.70;;;;;;4938510;28;20377;-76
2023/07/05 05:02:42;;;;;;;2.28;1.73;;;19.30;60.70;;;;;;4955962;28;20037;-76
2023/07/05 05:05:08;;;;;;;3.13;2.00;;;19.30;60.60;;;;;;4954095;28;20066;-76
2023/07/05 05:07:34;;;;;;;2.20;1.70;;;19.30;60.70;;;;;;4955462;28;20054;-77
2023/07/05 05:10:01;;;;;;;3.15;1.80;;;19.30;60.70;;;;;;4955965;28;20042;-77
2023/07/05 05:12:27;;;;;;;2.72;1.90;;;19.30;60.70;;;;;;4954029;28;20031;-77
2023/07/05 05:14:53;;;;;;;3.08;1.95;;;19.20;60.60;;;;;;4954581;29;20494;-74
2023/07/05 05:17:19;;;;;;;3.50;1.80;;;19.30;60.70;;;;;;4937770;29;20121;-76
2023/07/05 05:19:45;;;;;;;3.22;1.95;;;19.20;60.70;;;;;;4955405;28;20346;-78
2023/07/05 05:22:11;;;;;;;3.08;1.90;;;19.20;60.70;;;;;;4938248;29;20067;-76
2023/07/05 05:24:37;;;;;;;5.13;2.20;;;19.20;60.80;;;;;;4954696;29;20031;-80
2023/07/05 05:27:04;;;;;;;3.53;2.30;;;19.20;60.90;;;;;;4954386;29;20098;-76
2023/07/05 05:29:30;;;;;;;3.55;1.95;;;19.20;61.10;;;;;;4954420;29;20126;-75
2023/07/05 05:31:56;;;;;;;2.72;1.85;;;19.20;61.20;;;;;;4955961;28;20418;-75
2023/07/05 05:34:25;;;;;;;3.53;2.53;;;19.20;61.40;;;;;;4954068;29;20059;-75
2023/07/05 05:36:51;;;;;;;2.95;2.00;;;19.20;61.50;;;;;;4954035;29;20039;-77
2023/07/05 05:39:17;;;;;;;3.25;2.10;;;19.10;61.60;;;;;;4938914;28;20468;-77
2023/07/05 05:41:42;;;;;;;3.33;2.00;;;19.10;61.70;;;;;;4955066;29;20511;-76
2023/07/05 05:44:08;;;;;;;3.47;2.20;;;19.10;61.80;;;;;;4953894;29;20134;-77
2023/07/05 05:46:34;;;;;;;3.45;1.98;;;19.10;61.90;;;;;;4938387;29;20047;-77
2023/07/05 05:49:00;;;;;;;3.40;2.20;;;19.10;62.10;;;;;;4955539;28;20043;-74
2023/07/05 05:51:26;;;;;;;3.08;2.00;;;19.10;62.20;;;;;;4955828;28;20477;-77
2023/07/05 05:53:52;;;;;;;3.95;2.30;;;19.10;62.30;;;;;;4953716;29;20027;-74
2023/07/05 05:56:18;;;;;;;2.97;1.85;;;19.10;62.50;;;;;;4955697;28;20520;-76
2023/07/05 05:58:44;;;;;;;2.90;2.03;;;19.10;62.50;;;;;;4955225;28;20469;-76
2023/07/05 06:01:12;;;;;;;2.58;1.77;;;19.10;62.50;;;;;;4938361;29;20041;-74
2023/07/05 06:03:38;;;;;;;3.03;2.00;;;19.10;62.60;;;;;;4941728;28;20040;-77
2023/07/05 06:06:04;;;;;;;2.42;1.77;;;19.10;62.70;;;;;;4941350;29;20046;-76
2023/07/05 06:08:32;;;;;;;2.85;1.90;;;19.10;62.80;;;;;;4957977;29;20114;-76
2023/07/05 06:11:02;;;;;;;3.08;1.95;;;19.10;62.80;;;;;;4957651;29;20027;-76
2023/07/05 06:13:29;;;;;;;3.03;1.92;;;19.10;62.80;;;;;;4958576;28;20034;-76
2023/07/05 06:16:02;;;;;;;2.78;1.90;;;19.10;62.90;;;;;;4958456;28;20035;-77
2023/07/05 06:18:28;;;;;;;3.75;2.00;;;19.10;63.00;;;;;;4958249;28;20451;-77
2023/07/05 06:20:54;;;;;;;3.05;1.80;;;19.10;62.90;;;;;;4957598;28;20048;-77
2023/07/05 06:23:21;;;;;;;2.83;1.92;;;19.10;63.00;;;;;;4957217;29;20039;-76
2023/07/05 06:25:48;;;;;;;2.80;1.90;;;19.10;63.10;;;;;;4957381;29;20059;-77
2023/07/05 06:28:15;;;;;;;2.22;1.85;;;19.10;63.10;;;;;;4957200;29;20027;-75
2023/07/05 06:30:41;;;;;;;3.30;1.77;;;19.10;63.20;;;;;;4958182;28;20150;-77
2023/07/05 06:33:06;;;;;;;2.17;1.70;;;19.10;63.20;;;;;;4941290;29;20526;-76
2023/07/05 06:35:32;;;;;;;3.10;1.90;;;19.10;63.20;;;;;;4956926;29;20392;-76
2023/07/05 06:37:58;;;;;;;3.63;2.20;;;19.10;63.30;;;;;;4957827;29;20039;-76
2023/07/05 06:40:24;;;;;;;2.72;1.60;;;19.10;63.20;;;;;;4941371;29;20039;-76
2023/07/05 06:42:50;;;;;;;2.40;1.60;;;19.10;63.30;;;;;;4957158;29;20042;-80
2023/07/05 06:45:21;;;;;;;2.40;1.77;;;19.20;63.40;;;;;;4927303;29;20134;-80
2023/07/05 06:47:46;;;;;;;3.70;1.85;;;19.20;63.40;;;;;;4941385;28;20138;-80
2023/07/05 06:50:13;;;;;;;2.70;1.92;;;19.20;63.40;;;;;;4940728;29;20031;-79
2023/07/05 06:52:39;;;;;;;2.63;1.95;;;19.20;63.40;;;;;;4941039;28;20043;-79
2023/07/05 06:55:06;;;;;;;2.40;1.80;;;19.20;63.40;;;;;;4957284;29;20468;-76
2023/07/05 06:57:32;;;;;;;1.70;1.42;;;19.20;63.50;;;;;;4957811;28;20039;-76
2023/07/05 06:59:58;;;;;;;2.35;1.65;;;19.20;63.40;;;;;;4940719;29;20037;-76
2023/07/05 07:02:24;;;;;;;2.92;1.83;;;19.20;63.40;;;;;;4941512;28;20532;-76
2023/07/05 07:04:50;;;;;;;2.92;1.70;;;19.20;63.40;;;;;;4925191;29;20049;-77
2023/07/05 07:07:16;;;;;;;1.60;1.33;;;19.20;63.40;;;;;;4940814;29;20563;-77
2023/07/05 07:09:41;;;;;;;2.13;1.50;;;19.20;63.40;;;;;;4958178;28;20039;-76
2023/07/05 07:12:08;;;;;;;2.42;1.60;;;19.20;63.50;;;;;;4940705;29;20123;-76
2023/07/05 07:14:34;;;;;;;2.88;1.83;;;19.20;63.40;;;;;;4957403;28;20102;-76
2023/07/05 07:17:00;;;;;;;1.95;1.25;;;19.20;63.40;;;;;;4956167;29;20552;-78
2023/07/05 07:19:26;;;;;;;2.30;1.40;;;19.30;63.50;;;;;;4957354;28;20389;-77
2023/07/05 07:21:52;;;;;;;1.63;1.35;;;19.20;63.40;;;;;;4956337;29;20045;-76
2023/07/05 07:24:18;;;;;;;2.00;1.40;;;19.20;63.40;;;;;;4940390;28;20031;-74
2023/07/05 07:26:44;;;;;;;2.15;1.40;;;19.20;63.40;;;;;;4957893;28;20039;-74
2023/07/05 07:29:11;;;;;;;1.45;1.20;;;19.20;63.40;;;;;;4957087;28;20031;-76
2023/07/05 07:31:38;;;;;;;2.78;1.50;;;19.20;63.40;;;;;;4956186;29;20503;-77
2023/07/05 07:34:07;;;;;;;2.10;1.25;;;19.20;63.40;;;;;;4955837;29;20066;-76
2023/07/05 07:36:35;;;;;;;2.47;1.40;;;19.20;63.40;;;;;;4955905;29;20027;-76
2023/07/05 07:39:01;;;;;;;1.60;1.30;;;19.20;63.40;;;;;;4956309;29;20559;-75
2023/07/05 07:41:29;;;;;;;1.85;1.13;;;19.10;63.40;;;;;;4939798;29;20094;-75
2023/07/05 07:43:59;;;;;;;1.23;1.00;;;19.20;63.50;;;;;;4957082;28;20074;-76
2023/07/05 07:46:26;;;;;;;2.75;1.20;;;19.20;63.50;;;;;;4955490;29;20086;-75
2023/07/05 07:48:54;;;;;;;1.92;1.35;;;19.10;63.50;;;;;;4955882;29;20036;-75
2023/07/05 07:51:22;;;;;;;1.38;1.10;;;19.10;63.50;;;;;;4956768;28;20059;-76
2023/07/05 07:53:52;;;;;;;0.95;0.95;;;19.10;63.50;;;;;;4939810;29;20460;-75
2023/07/05 07:56:21;;;;;;;2.35;1.30;;;19.10;63.50;;;;;;4955688;28;20062;-75
2023/07/05 07:58:50;;;;;;;1.02;1.00;;;19.10;63.50;;;;;;4956604;28;20027;-75
2023/07/05 08:01:18;;;;;;;1.17;1.08;;;19.10;63.60;;;;;;4956524;28;20023;-75
2023/07/05 08:03:44;;;;;;;2.45;1.42;;;19.10;63.60;;;;;;4955275;29;20049;-75
2023/07/05 08:06:11;;;;;;;1.20;1.10;;;19.00;63.60;;;;;;4939426;29;20507;-75
2023/07/05 08:08:38;;;;;;;2.00;1.10;;;19.10;63.60;;;;;;4956415;28;20484;-76
2023/07/05 08:11:06;;;;;;;2.00;1.15;;;19.00;63.60;;;;;;4955569;29;20028;-76
2023/07/05 08:13:32;;;;;;;2.00;1.30;;;19.10;63.60;;;;;;4955150;29;20031;-75
2023/07/05 08:15:58;;;;;;;1.10;1.00;;;19.00;63.60;;;;;;4938964;28;20042;-75
2023/07/05 08:18:25;;;;;;;1.60;1.30;;;19.00;63.60;;;;;;4939323;29;20035;-75
2023/07/05 08:20:51;;;;;;;1.52;1.10;;;19.00;63.60;;;;;;4956141;28;20035;-75
2023/07/05 08:23:20;;;;;;;1.10;1.00;;;19.00;63.60;;;;;;4955083;28;20031;-75
2023/07/05 08:25:54;;;;;;;1.73;1.13;;;19.00;63.70;;;;;;4938777;29;20031;-74
2023/07/05 08:28:27;;;;;;;1.48;1.23;;;19.00;63.60;;;;;;4939401;29;20038;-75
2023/07/05 08:30:59;;;;;;;1.27;1.13;;;19.00;63.70;;;;;;4955099;29;20035;-75
2023/07/05 08:33:27;;;;;;;1.33;1.05;;;19.00;63.70;;;;;;4939254;29;20138;-77
2023/07/05 08:36:14;;;;;;;1.73;1.40;;;19.00;63.70;;;;;;4955846;29;20036;-76
2023/07/05 08:38:45;;;;;;;1.75;1.20;;;19.00;63.80;;;;;;4956173;28;20039;-75
2023/07/05 08:41:41;;;;;;;1.60;1.23;;;19.00;63.70;;;;;;4955855;28;20031;-74
2023/07/05 08:44:40;;;;;;;2.63;1.13;;;19.00;63.90;;;;;;4955911;28;20050;-75
2023/07/05 08:47:08;;;;;;;1.42;1.25;;;18.90;63.80;;;;;;4955832;29;20031;-75
2023/07/05 08:49:50;;;;;;;1.33;1.20;;;18.90;63.70;;;;;;4938250;28;20443;-76
2023/07/05 08:52:27;;;;;;;1.75;1.20;;;18.90;63.90;;;;;;4955529;28;20091;-75
2023/07/05 08:55:08;;;;;;;1.42;1.23;;;18.90;64.50;;;;;;4937881;29;20059;-75
2023/07/05 08:57:46;;;;;;;1.38;1.27;;;18.90;63.90;;;;;;4955346;28;20028;-76
2023/07/05 09:00:16;;;;;;;2.22;1.17;;;18.90;63.90;;;;;;4955453;29;20029;-76
2023/07/05 09:02:42;;;;;;;1.30;1.20;;;18.90;63.90;;;;;;4937583;29;20025;-76
2023/07/05 09:05:43;;;;;;;1.13;1.00;;;18.90;63.90;;;;;;4938824;29;20109;-76
2023/07/05 09:08:23;;;;;;;2.13;1.15;;;18.90;64.70;;;;;;4953926;28;20035;-76
2023/07/05 09:11:11;;;;;;;1.50;1.27;;;19.00;64.10;;;;;;4953524;29;20110;-75
2023/07/05 09:13:39;;;;;;;2.30;1.33;;;19.00;64.10;;;;;;4954697;28;20027;-78
2023/07/05 09:16:14;;;;;;;1.80;1.25;;;19.00;64.00;;;;;;4937728;29;20030;-75
2023/07/05 09:18:55;;;;;;;3.72;1.33;;;19.00;64.10;;;;;;4953823;29;20480;-77
2023/07/05 09:21:42;;;;;;;1.60;1.30;;;19.00;64.20;;;;;;4955112;29;20476;-76
2023/07/05 09:24:23;;;;;;;1.33;1.15;;;19.10;64.20;;;;;;4953411;29;20031;-76
2023/07/05 09:27:11;;;;;;;1.70;1.30;;;19.10;64.10;;;;;;4955137;29;20047;-75
2023/07/05 09:29:50;;;;;;;1.45;1.20;;;19.10;64.20;;;;;;4937802;29;20393;-74
2023/07/05 09:32:28;;;;;;;1.52;1.33;;;19.10;64.20;;;;;;4954666;28;20061;-75
2023/07/05 09:34:59;;;;;;;2.33;1.52;;;19.10;64.20;;;;;;4952809;28;20035;-75
2023/07/05 09:37:34;;;;;;;2.13;1.38;;;19.20;64.20;;;;;;4936894;29;20031;-75
2023/07/05 09:40:15;;;;;;;3.00;1.40;;;19.20;64.30;;;;;;4954220;28;20031;-76
2023/07/05 09:43:24;;;;;;;3.53;1.83;;;19.20;64.20;;;;;;4954575;28;20035;-75
2023/07/05 09:45:50;;;;;;;1.25;1.13;;;19.20;64.20;;;;;;4900182;29;1130819;-75
2023/07/05 09:48:17;;;;;;;2.47;1.40;;;19.30;64.10;;;;;;4953716;29;20134;-74
2023/07/05 09:50:51;;;;;;;1.65;1.38;;;19.30;64.10;;;;;;4938024;28;20059;-74
2023/07/05 09:53:48;;;;;;;4.23;1.93;;;19.30;64.20;;;;;;4953975;29;20042;-76
2023/07/05 09:56:17;;;;;;;2.20;1.30;;;19.30;64.20;;;;;;4954141;29;20283;-75
2023/07/05 09:58:44;;;;;;;2.30;1.27;;;19.30;64.10;;;;;;4953821;29;20551;-73
2023/07/05 10:01:22;;;;;;;1.42;1.17;;;19.30;64.10;;;;;;4954636;29;20057;-76
2023/07/05 10:03:57;;;;;;;1.98;1.40;;;19.30;64.20;;;;;;4937550;29;20035;-76
2023/07/05 10:06:24;;;;;;;;;;;19.40;64.20;;;;;;4954597;29;20039;-76
2023/07/05 10:08:52;;;;;;;1.30;1.13;;;19.30;63.80;;;;;;4937630;28;19919;-76
2023/07/05 10:11:33;;;;;;;1.40;1.17;;;19.40;63.80;;;;;;4954751;28;20139;-76
2023/07/05 10:14:10;;;;;;;1.98;1.30;;;19.40;64.00;;;;;;4938075;29;20472;-75
2023/07/05 10:16:54;;;;;;;1.85;1.25;;;19.40;64.00;;;;;;4938080;28;20035;-76
2023/07/05 10:19:49;;;;;;;2.08;1.42;;;19.40;64.00;;;;;;4953729;28;20039;-75
2023/07/05 10:22:34;;;;;;;2.22;1.50;;;19.40;64.00;;;;;;4955473;28;20034;-74
2023/07/05 10:25:05;;;;;;;2.22;1.40;;;19.40;64.00;;;;;;4953639;29;20074;-75
2023/07/05 10:27:35;;;;;;;1.15;1.08;;;19.40;64.00;;;;;;4954871;29;20502;-75
2023/07/05 10:30:02;;;;;;;2.47;1.30;;;19.40;64.10;;;;;;4937992;29;20042;-75
2023/07/05 10:32:29;;;;;;;2.03;1.30;;;19.40;64.10;;;;;;4937688;29;20035;-75
2023/07/05 10:34:55;;;;;;;1.40;1.00;;;19.40;64.10;;;;;;4938126;29;20035;-75
2023/07/05 10:37:32;;;;;;;2.30;1.48;;;19.40;64.10;;;;;;4937811;29;20499;-74
2023/07/05 10:40:00;;;;;;;1.88;1.20;;;19.40;64.20;;;;;;4954564;28;20035;-75
2023/07/05 10:42:27;;;;;;;2.10;1.20;;;19.40;64.10;;;;;;4954658;28;20032;-75
2023/07/05 10:44:54;;;;;;;1.58;1.15;;;19.30;64.10;;;;;;4954442;28;20143;-75
2023/07/05 10:47:21;;;;;;;1.83;1.17;;;19.40;64.10;;;;;;4955416;28;20031;-75
2023/07/05 10:49:51;;;;;;;1.75;1.10;;;19.30;64.10;;;;;;4956680;29;20043;-74
2023/07/05 10:52:18;;;;;;;1.98;1.40;;;19.30;64.10;;;;;;4957954;28;20031;-74
2023/07/05 10:54:50;;;;;;;2.15;1.30;;;19.30;64.00;;;;;;4956658;29;20109;-77
2023/07/05 10:57:31;;;;;;;1.35;1.13;;;19.30;64.10;;;;;;4958424;28;20031;-76
2023/07/05 11:00:29;;;;;;;2.72;1.40;;;19.30;64.00;;;;;;4957086;29;20345;-76
2023/07/05 11:03:03;;;;;;;1.95;1.00;;;19.30;64.10;;;;;;4940698;29;20028;-76
2023/07/05 11:05:35;;;;;;;1.70;1.20;;;19.30;64.00;;;;;;4956535;29;20035;-76
2023/07/05 11:08:02;;;;;;;1.55;1.17;;;19.30;64.10;;;;;;4940883;29;20388;-76
2023/07/05 11:10:38;;;;;;;1.75;1.27;;;19.30;64.10;;;;;;4940346;29;20027;-76
2023/07/05 11:13:06;;;;;;;1.45;1.00;;;19.20;64.70;;;;;;4958604;28;20071;-75
2023/07/05 11:15:35;;;;;;;1.85;1.13;;;19.20;64.00;;;;;;4956484;29;20039;-75
2023/07/05 11:18:01;;;;;;;1.77;1.20;;;19.20;64.00;;;;;;4941168;29;20090;-76
2023/07/05 11:20:39;;;;;;;3.08;1.48;;;19.30;64.10;;;;;;4956699;29;20110;-76
2023/07/05 11:23:09;;;;;;;2.47;1.17;;;19.30;64.20;;;;;;4956401;29;20094;-76
2023/07/05 11:25:53;;;;;;;2.17;1.00;;;19.30;64.10;;;;;;4957259;28;20038;-76
2023/07/05 11:28:34;;;;;;;1.20;1.00;;;19.30;64.10;;;;;;4940267;28;20078;-76
2023/07/05 11:31:01;;;;;;;3.17;1.10;;;19.30;64.10;;;;;;4957210;28;20035;-77
2023/07/05 11:33:27;;;;;;;1.58;1.10;;;19.30;64.00;;;;;;4956071;29;20524;-79
2023/07/05 11:35:56;;;;;;;1.38;1.05;;;19.30;63.90;;;;;;4955973;29;20074;-75
2023/07/05 11:38:40;;;;;;;1.80;1.17;;;19.30;63.90;;;;;;4956197;28;20371;-76
2023/07/05 11:41:25;;;;;;;1.58;1.17;;;19.30;64.00;;;;;;4957342;28;20031;-75
2023/07/05 11:44:03;;;;;;;2.35;1.17;;;19.40;63.90;;;;;;4957046;28;20122;-79
2023/07/05 11:46:41;;;;;;;2.53;1.40;;;19.40;63.90;;;;;;4955724;29;20051;-78
2023/07/05 11:49:27;;;;;;;1.15;0.85;;;19.40;64.00;;;;;;4956529;29;20039;-77
2023/07/05 11:52:16;;;;;;;1.33;1.00;;;19.40;63.90;;;;;;4957064;29;20031;-78
2023/07/05 11:54:47;;;;;;;1.35;1.10;;;19.40;63.80;;;;;;4956173;29;20038;-76
2023/07/05 11:57:14;;;;;;;2.58;1.35;;;19.50;63.70;;;;;;4955571;29;20031;-74
2023/07/05 11:59:46;;;;;;;1.80;1.23;;;19.50;63.60;;;;;;4954770;28;20093;-77
2023/07/05 12:02:29;;;;;;;2.90;1.20;;;19.50;64.30;;;;;;4957493;28;20035;-75
2023/07/05 12:05:00;;;;;;;1.27;1.02;;;19.60;63.80;;;;;;4955723;29;20039;-80
2023/07/05 12:07:27;;;;;;;1.70;0.95;;;19.60;63.60;;;;;;4940383;29;20043;-76
2023/07/05 12:09:56;;;;;;;0.90;0.90;;;19.70;63.60;;;;;;4939230;29;20031;-77
2023/07/05 12:12:22;;;;;;;1.40;1.10;;;19.70;63.60;;;;;;4956402;28;20189;-74
2023/07/05 12:14:49;;;;;;;1.25;1.00;;;19.70;63.50;;;;;;4939267;29;20039;-77
2023/07/05 12:17:17;;;;;;;2.17;1.40;;;19.80;63.60;;;;;;4923637;29;20485;-78
2023/07/05 12:19:44;;;;;;;1.58;1.15;;;19.80;63.60;;;;;;4955306;28;20027;-77
2023/07/05 12:22:25;;;;;;;1.95;1.23;;;19.80;63.40;;;;;;4955588;29;20042;-76
2023/07/05 12:24:53;;;;;;;1.27;1.10;;;19.90;63.60;;;;;;4956244;29;20085;-75
2023/07/05 12:27:23;;;;;;;2.25;1.20;;;19.90;63.40;;;;;;4956160;28;20042;-75
2023/07/05 12:29:51;;;;;;;1.52;1.15;;;20.00;63.40;;;;;;4955512;29;20035;-76
2023/07/05 12:32:23;;;;;;;1.65;1.20;;;20.00;63.40;;;;;;4955532;29;20027;-76
2023/07/05 12:35:10;;;;;;;2.60;1.20;;;20.10;63.40;;;;;;4938962;28;20041;-78
2023/07/05 12:37:36;;;;;;;1.58;1.20;;;20.10;63.40;;;;;;4954829;29;20035;-75
2023/07/05 12:40:14;;;;;;;2.33;1.27;;;20.10;63.30;;;;;;4954610;29;20040;-77
2023/07/05 12:43:04;;;;;;;2.65;1.20;;;20.20;63.30;;;;;;4954640;29;20042;-79
2023/07/05 12:45:33;;;;;;;2.63;1.27;;;20.20;63.30;;;;;;4955860;28;20047;-78
2023/07/05 12:48:13;;;;;;;2.55;1.25;;;20.20;63.10;;;;;;4955684;28;20035;-75
2023/07/05 12:50:40;;;;;;;1.52;1.10;;;20.30;63.30;;;;;;4939139;28;20086;-75
2023/07/05 12:53:16;;;;;;;2.17;1.30;;;20.20;63.10;;;;;;4956209;28;20391;-78
2023/07/05 12:55:52;;;;;;;1.73;1.45;;;20.30;63.10;;;;;;4954840;28;20027;-76
2023/07/05 12:58:22;;;;;;;1.55;1.25;;;20.30;63.10;;;;;;4955370;28;20031;-75
2023/07/05 13:00:52;;;;;;;3.08;1.40;;;20.40;63.10;;;;;;4954930;29;20028;-75
2023/07/05 13:03:21;;;;;;;1.50;1.10;;;20.40;63.10;;;;;;4938521;28;20019;-76
2023/07/05 13:05:47;;;;;;;2.28;1.60;;;20.40;63.10;;;;;;4955541;28;20046;-75